createdAt,value
2024-02-12T00:02:20.466Z,4.44
2024-02-12T00:04:49.014Z,4.41
2024-02-12T00:07:19.526Z,6.23
2024-02-12T00:09:46.514Z,5.37
2024-02-12T00:12:14.343Z,4.41
2024-02-12T00:14:41.253Z,6.21
2024-02-12T00:17:11.032Z,5.36
2024-02-12T00:19:38.908Z,5.49
2024-02-12T00:22:05.762Z,5.87
2024-02-12T00:24:33.625Z,5.31
2024-02-12T00:27:02.291Z,5.27
2024-02-12T00:29:29.464Z,5.94
2024-02-12T00:31:59.569Z,6.24
2024-02-12T00:34:27.744Z,5.83
2024-02-12T00:36:54.458Z,6.44
2024-02-12T00:39:21.370Z,5.69
2024-02-12T00:41:52.037Z,5.56
2024-02-12T00:44:21.746Z,6.21
2024-02-12T00:46:48.551Z,6.19
2024-02-12T00:49:18.967Z,5.98
2024-02-12T00:51:45.815Z,6.17
2024-02-12T00:54:16.050Z,5.70
2024-02-12T00:56:45.926Z,6.05
2024-02-12T00:59:13.210Z,5.92
2024-02-12T01:01:45.188Z,5.79
2024-02-12T01:04:11.895Z,5.56
2024-02-12T01:06:39.949Z,5.99
2024-02-12T01:09:07.160Z,5.85
2024-02-12T01:11:35.664Z,6.28
2024-02-12T01:14:02.403Z,6.09
2024-02-12T01:16:31.209Z,5.92
2024-02-12T01:18:57.961Z,5.43
2024-02-12T01:21:24.654Z,5.81
2024-02-12T01:23:51.368Z,5.96
2024-02-12T01:26:18.105Z,6.19
2024-02-12T01:28:45.164Z,5.99
2024-02-12T01:31:19.175Z,5.73
2024-02-12T01:33:47.894Z,5.00
2024-02-12T01:36:15.218Z,5.88
2024-02-12T01:38:42.148Z,5.76
2024-02-12T01:41:08.802Z,6.18
2024-02-12T01:43:38.141Z,4.58
2024-02-12T01:46:08.079Z,5.70
2024-02-12T01:48:37.141Z,6.16
2024-02-12T01:51:10.711Z,5.29
2024-02-12T01:53:38.837Z,5.17
2024-02-12T01:56:09.804Z,6.15
2024-02-12T01:58:42.091Z,5.61
2024-02-12T02:01:09.265Z,5.27
2024-02-12T02:03:36.265Z,3.99
2024-02-12T02:06:03.149Z,6.40
2024-02-12T02:08:38.279Z,5.21
2024-02-12T02:11:06.348Z,5.81
2024-02-12T02:13:46.024Z,4.11
2024-02-12T02:16:13.289Z,3.62
2024-02-12T02:18:40.300Z,5.11
2024-02-12T02:21:11.439Z,5.11
2024-02-12T02:23:41.480Z,5.16
2024-02-12T02:26:08.482Z,6.08
2024-02-12T02:28:35.659Z,6.40
2024-02-12T02:31:02.354Z,4.87
2024-02-12T02:33:29.189Z,5.26
2024-02-12T02:35:56.053Z,6.25
2024-02-12T02:38:24.306Z,5.03
2024-02-12T02:40:51.257Z,5.28
2024-02-12T02:43:17.906Z,5.19
2024-02-12T02:45:44.550Z,4.97
2024-02-12T02:48:11.239Z,5.60
2024-02-12T02:50:38.113Z,4.44
2024-02-12T02:53:04.952Z,6.51
2024-02-12T02:55:31.601Z,5.42
2024-02-12T02:58:02.991Z,5.48
2024-02-12T03:00:30.557Z,5.62
2024-02-12T03:02:58.493Z,4.50
2024-02-12T03:05:28.721Z,5.47
2024-02-12T03:07:55.864Z,6.35
2024-02-12T03:10:22.584Z,6.34
2024-02-12T03:12:49.666Z,5.71
2024-02-12T03:15:16.906Z,4.77
2024-02-12T03:17:44.835Z,5.37
2024-02-12T03:20:13.072Z,6.54
2024-02-12T03:22:40.935Z,5.17
2024-02-12T03:25:09.528Z,6.06
2024-02-12T03:27:36.607Z,5.14
2024-02-12T03:30:04.066Z,5.43
2024-02-12T03:32:30.828Z,6.42
2024-02-12T03:35:02.530Z,6.32
2024-02-12T03:37:29.225Z,6.32
2024-02-12T03:39:56.028Z,6.05
2024-02-12T03:42:28.643Z,5.47
2024-02-12T03:44:55.704Z,6.27
2024-02-12T03:47:29.333Z,6.32
2024-02-12T03:50:20.991Z,6.15
2024-02-12T03:53:06.298Z,5.81
2024-02-12T03:55:51.655Z,5.55
2024-02-12T03:58:36.889Z,6.49
2024-02-12T04:01:03.593Z,5.34
2024-02-12T04:03:30.395Z,5.03
2024-02-12T04:05:59.245Z,5.32
2024-02-12T04:08:25.994Z,5.46
2024-02-12T04:10:52.690Z,5.17
2024-02-12T04:13:20.512Z,5.93
2024-02-12T04:15:47.193Z,5.38
2024-02-12T04:18:14.059Z,5.73
2024-02-12T04:20:41.269Z,4.86
2024-02-12T04:23:12.311Z,5.28
2024-02-12T04:25:38.960Z,5.72
2024-02-12T04:28:06.291Z,5.55
2024-02-12T04:30:33.004Z,3.94
2024-02-12T04:33:00.798Z,5.28
2024-02-12T04:35:27.653Z,5.15
2024-02-12T04:37:56.432Z,3.83
2024-02-12T04:40:26.393Z,5.38
2024-02-12T04:42:54.020Z,5.64
2024-02-12T04:45:25.363Z,4.80
2024-02-12T04:47:57.948Z,5.13
2024-02-12T04:50:24.823Z,4.66
2024-02-12T04:52:52.044Z,3.65
2024-02-12T04:55:18.820Z,4.80
2024-02-12T04:57:45.694Z,5.33
2024-02-12T05:00:14.112Z,5.07
2024-02-12T05:02:41.871Z,5.62
2024-02-12T05:05:09.783Z,5.79
2024-02-12T05:07:36.558Z,4.86
2024-02-12T05:10:03.472Z,5.32
2024-02-12T05:12:30.757Z,5.22
2024-02-12T05:14:57.763Z,4.90
2024-02-12T05:17:43.346Z,3.85
2024-02-12T05:20:29.153Z,5.48
2024-02-12T05:22:55.938Z,4.50
2024-02-12T05:25:22.607Z,5.12
2024-02-12T05:27:49.267Z,4.59
2024-02-12T05:30:15.957Z,5.52
2024-02-12T05:32:42.937Z,6.41
2024-02-12T05:35:11.199Z,4.29
2024-02-12T05:37:38.049Z,6.14
2024-02-12T05:40:08.843Z,5.20
2024-02-12T05:42:35.600Z,5.59
2024-02-12T05:45:02.335Z,5.71
2024-02-12T05:47:29.236Z,4.75
2024-02-12T05:49:56.362Z,4.18
2024-02-12T05:52:23.159Z,4.87
2024-02-12T05:54:49.880Z,4.44
2024-02-12T05:57:16.580Z,6.51
2024-02-12T05:59:43.343Z,5.33
2024-02-12T06:02:10.057Z,6.08
2024-02-12T06:04:36.796Z,4.20
2024-02-12T06:07:04.827Z,5.34
2024-02-12T06:09:32.310Z,5.62
2024-02-12T06:11:59.138Z,5.78
2024-02-12T06:14:26.167Z,4.34
2024-02-12T06:16:52.896Z,5.19
2024-02-12T06:19:19.796Z,5.37
2024-02-12T06:21:49.222Z,5.22
2024-02-12T06:24:15.979Z,6.12
2024-02-12T06:26:44.134Z,5.82
2024-02-12T06:29:12.400Z,4.59
2024-02-12T06:31:43.490Z,6.19
2024-02-12T06:34:11.882Z,5.22
2024-02-12T06:36:38.645Z,5.51
2024-02-12T06:39:06.320Z,6.14
2024-02-12T06:41:34.372Z,4.57
2024-02-12T06:44:01.508Z,6.40
2024-02-12T06:46:28.194Z,6.40
2024-02-12T06:48:54.963Z,4.63
2024-02-12T06:51:21.684Z,6.63
2024-02-12T06:53:48.375Z,5.81
2024-02-12T06:56:15.072Z,5.50
2024-02-12T06:58:43.434Z,5.86
2024-02-12T07:01:14.062Z,5.72
2024-02-12T07:03:42.720Z,5.69
2024-02-12T07:06:12.677Z,4.78
2024-02-12T07:08:41.884Z,6.19
2024-02-12T07:11:10.006Z,5.40
2024-02-12T07:13:36.705Z,4.52
2024-02-12T07:16:04.085Z,6.02
2024-02-12T07:18:30.861Z,6.39
2024-02-12T07:20:57.773Z,6.10
2024-02-12T07:23:24.455Z,5.84
2024-02-12T07:25:51.172Z,5.73
2024-02-12T07:28:19.357Z,5.71
2024-02-12T07:30:46.627Z,5.30
2024-02-12T07:33:13.419Z,6.26
2024-02-12T07:35:40.274Z,6.00
2024-02-12T07:38:07.237Z,7.02
2024-02-12T07:40:34.789Z,6.91
2024-02-12T07:43:01.784Z,4.98
2024-02-12T07:45:29.148Z,5.59
2024-02-12T07:47:56.532Z,6.20
2024-02-12T07:50:23.370Z,6.73
2024-02-12T07:52:50.018Z,5.85
2024-02-12T07:55:16.686Z,7.19
2024-02-12T07:57:45.645Z,7.03
2024-02-12T08:00:16.269Z,5.34
2024-02-12T08:02:46.494Z,6.85
2024-02-12T08:05:13.763Z,7.23
2024-02-12T08:07:51.950Z,6.59
2024-02-12T08:10:24.598Z,7.18
2024-02-12T08:12:51.309Z,6.92
2024-02-12T08:15:18.370Z,6.51
2024-02-12T08:17:45.053Z,7.20
2024-02-12T08:20:11.941Z,7.65
2024-02-12T08:22:38.631Z,7.35
2024-02-12T08:25:06.371Z,6.62
2024-02-12T08:27:33.621Z,7.67
2024-02-12T08:30:02.142Z,7.47
2024-02-12T08:32:30.032Z,7.55
2024-02-12T08:34:56.915Z,8.03
2024-02-12T08:37:23.983Z,8.33
2024-02-12T08:39:50.850Z,7.55
2024-02-12T08:42:17.642Z,7.90
2024-02-12T08:44:49.038Z,8.33
2024-02-12T08:47:15.824Z,8.08
2024-02-12T08:49:44.274Z,8.11
2024-02-12T08:52:10.905Z,6.64
2024-02-12T08:54:38.735Z,6.51
2024-02-12T08:57:07.297Z,8.12
2024-02-12T08:59:35.631Z,7.97
2024-02-12T09:02:02.515Z,7.49
2024-02-12T09:04:29.238Z,6.87
2024-02-12T09:06:57.069Z,7.89
2024-02-12T09:09:23.840Z,6.92
2024-02-12T09:11:50.516Z,7.65
2024-02-12T09:14:18.357Z,7.13
2024-02-12T09:16:45.501Z,8.06
2024-02-12T09:19:12.458Z,8.24
2024-02-12T09:21:39.647Z,6.53
2024-02-12T09:24:08.683Z,7.77
2024-02-12T09:26:35.660Z,7.42
2024-02-12T09:29:03.060Z,6.72
2024-02-12T09:31:32.687Z,8.48
2024-02-12T09:34:01.031Z,7.38
2024-02-12T09:36:28.138Z,7.85
2024-02-12T09:38:55.014Z,6.80
2024-02-12T09:41:27.437Z,7.97
2024-02-12T09:43:54.237Z,7.37
2024-02-12T09:46:21.126Z,7.40
2024-02-12T09:48:51.363Z,7.63
2024-02-12T09:51:19.083Z,7.40
2024-02-12T09:53:46.104Z,7.45
2024-02-12T09:56:12.955Z,6.67
2024-02-12T09:58:39.757Z,8.14
2024-02-12T10:01:06.729Z,7.98
2024-02-12T10:03:36.508Z,7.71
2024-02-12T10:06:03.592Z,7.40
2024-02-12T10:08:31.910Z,8.06
2024-02-12T10:10:58.670Z,7.15
2024-02-12T10:13:27.607Z,8.55
2024-02-12T10:15:54.664Z,7.32
2024-02-12T10:18:22.103Z,8.29
2024-02-12T10:20:50.289Z,6.59
2024-02-12T10:23:17.713Z,8.19
2024-02-12T10:25:49.067Z,6.49
2024-02-12T10:28:19.539Z,8.33
2024-02-12T10:30:47.369Z,6.52
2024-02-12T10:33:15.058Z,8.01
2024-02-12T10:35:49.921Z,8.71
2024-02-12T10:38:17.178Z,8.27
2024-02-12T10:40:54.632Z,8.92
2024-02-12T10:43:24.599Z,8.79
2024-02-12T10:45:52.960Z,8.83
2024-02-12T10:48:19.665Z,8.09
2024-02-12T10:50:48.563Z,7.71
2024-02-12T10:53:16.913Z,7.09
2024-02-12T10:55:45.162Z,7.71
2024-02-12T10:58:15.290Z,7.84
2024-02-12T11:00:49.476Z,7.43
2024-02-12T11:03:35.560Z,7.94
2024-02-12T11:06:02.471Z,6.85
2024-02-12T11:08:29.297Z,7.37
2024-02-12T11:11:00.773Z,8.91
2024-02-12T11:13:37.737Z,8.86
2024-02-12T11:16:07.958Z,7.48
2024-02-12T11:18:36.008Z,8.00
2024-02-12T11:21:03.065Z,8.52
2024-02-12T11:23:31.816Z,7.74
2024-02-12T11:26:01.852Z,9.13
2024-02-12T11:28:29.593Z,8.58
2024-02-12T11:30:56.350Z,7.66
2024-02-12T11:33:26.209Z,9.64
2024-02-12T11:36:09.533Z,9.49
2024-02-12T11:38:52.168Z,9.19
2024-02-12T11:41:19.427Z,9.30
2024-02-12T11:43:47.981Z,9.46
2024-02-12T11:46:17.173Z,9.41
2024-02-12T11:48:44.234Z,7.61
2024-02-12T11:51:11.062Z,9.23
2024-02-12T11:53:40.946Z,8.94
2024-02-12T11:56:08.017Z,8.15
2024-02-12T11:58:34.824Z,8.81
2024-02-12T12:01:01.844Z,8.72
2024-02-12T12:03:28.598Z,8.81
2024-02-12T12:05:56.217Z,8.27
2024-02-12T12:08:28.981Z,8.32
2024-02-12T12:11:04.360Z,8.94
2024-02-12T12:13:31.458Z,8.35
2024-02-12T12:15:58.577Z,7.93
2024-02-12T12:18:26.252Z,7.01
2024-02-12T12:20:56.327Z,8.07
2024-02-12T12:23:23.255Z,7.73
2024-02-12T12:25:53.718Z,8.04
2024-02-12T12:28:21.251Z,8.09
2024-02-12T12:30:47.949Z,8.57
2024-02-12T12:33:14.919Z,8.47
2024-02-12T12:35:41.849Z,8.32
2024-02-12T12:38:13.266Z,8.81
2024-02-12T12:40:40.052Z,8.67
2024-02-12T12:43:12.028Z,8.51
2024-02-12T12:45:39.902Z,8.72
2024-02-12T12:48:06.946Z,8.38
2024-02-12T12:50:34.035Z,8.51
2024-02-12T12:53:00.767Z,8.65
2024-02-12T12:55:27.442Z,8.79
2024-02-12T12:57:54.555Z,9.01
2024-02-12T13:00:27.415Z,7.08
2024-02-12T13:02:54.424Z,8.66
2024-02-12T13:05:22.428Z,9.02
2024-02-12T13:08:16.643Z,8.76
2024-02-12T13:13:15.206Z,8.55
2024-02-12T13:15:44.562Z,8.73
2024-02-12T13:18:19.398Z,8.70
2024-02-12T13:20:48.615Z,8.90
2024-02-12T13:23:16.144Z,8.10
2024-02-12T13:25:42.831Z,8.68
2024-02-12T13:28:13.137Z,8.44
2024-02-12T13:30:40.089Z,7.23
2024-02-12T13:33:08.206Z,6.08
2024-02-12T13:35:38.851Z,7.17
2024-02-12T13:38:05.981Z,7.05
2024-02-12T13:40:34.101Z,7.72
2024-02-12T13:43:05.903Z,8.08
2024-02-12T13:45:33.797Z,7.73
2024-02-12T13:48:01.551Z,8.61
2024-02-12T13:50:28.613Z,8.47
2024-02-12T13:52:55.327Z,8.72
2024-02-12T13:55:22.259Z,8.09
2024-02-12T13:57:51.710Z,9.02
2024-02-12T14:00:43.746Z,8.82
2024-02-12T14:03:10.115Z,7.89
2024-02-12T14:05:37.132Z,9.18
2024-02-12T14:08:05.757Z,8.38
2024-02-12T14:10:32.618Z,8.91
2024-02-12T14:12:59.489Z,7.83
2024-02-12T14:16:03.162Z,8.85
2024-02-12T14:18:18.688Z,8.42
2024-02-12T14:20:45.988Z,8.71
2024-02-12T14:23:12.788Z,6.93
2024-02-12T14:25:41.608Z,8.40
2024-02-12T14:28:10.972Z,8.07
2024-02-12T14:30:37.961Z,8.29
2024-02-12T14:33:06.608Z,8.25
2024-02-12T14:35:40.502Z,8.53
2024-02-12T14:38:07.507Z,8.32
2024-02-12T14:40:34.176Z,8.59
2024-02-12T14:43:00.806Z,8.53
2024-02-12T14:45:31.492Z,8.34
2024-02-12T14:48:06.441Z,8.70
2024-02-12T14:50:34.431Z,8.32
2024-02-12T14:53:01.849Z,8.07
2024-02-12T14:55:28.657Z,7.79
2024-02-12T14:57:55.373Z,8.51
2024-02-12T15:00:25.503Z,8.34
2024-02-12T15:02:53.338Z,8.10
2024-02-12T15:05:20.152Z,8.46
2024-02-12T15:07:47.870Z,6.50
2024-02-12T15:10:22.629Z,8.20
2024-02-12T15:12:49.641Z,8.51
2024-02-12T15:15:22.265Z,6.49
2024-02-12T15:17:53.601Z,7.12
2024-02-12T15:20:22.744Z,8.24
2024-02-12T15:22:51.272Z,7.80
2024-02-12T15:25:20.784Z,8.02
2024-02-12T15:27:48.292Z,8.44
2024-02-12T15:30:15.956Z,7.60
2024-02-12T15:32:43.273Z,7.55
2024-02-12T15:35:16.198Z,7.87
2024-02-12T15:37:46.978Z,7.92
2024-02-12T15:40:18.692Z,7.80
2024-02-12T15:42:47.027Z,8.10
2024-02-12T15:45:13.783Z,7.63
2024-02-12T15:47:46.638Z,7.79
2024-02-12T15:50:13.638Z,7.52
2024-02-12T15:52:43.601Z,7.72
2024-02-12T15:55:12.177Z,6.74
2024-02-12T15:57:39.522Z,7.86
2024-02-12T16:00:15.412Z,7.97
2024-02-12T16:02:45.961Z,8.05
2024-02-12T16:05:51.137Z,8.23
2024-02-12T16:08:18.753Z,7.51
2024-02-12T16:10:45.489Z,7.51
2024-02-12T16:13:13.360Z,7.81
2024-02-12T16:15:40.860Z,7.13
2024-02-12T16:18:09.212Z,7.72
2024-02-12T16:20:36.523Z,7.88
2024-02-12T16:23:03.766Z,7.98
2024-02-12T16:25:30.974Z,8.07
2024-02-12T16:28:01.961Z,7.36
2024-02-12T16:30:28.610Z,7.82
2024-02-12T16:32:55.924Z,7.75
2024-02-12T16:35:22.884Z,7.61
2024-02-12T16:37:49.584Z,7.76
2024-02-12T16:40:16.285Z,7.52
2024-02-12T16:42:43.618Z,7.40
2024-02-12T16:45:10.777Z,6.91
2024-02-12T16:47:39.973Z,7.93
2024-02-12T16:50:08.350Z,7.62
2024-02-12T16:52:35.305Z,7.59
2024-02-12T16:55:02.141Z,7.24
2024-02-12T16:57:29.536Z,7.20
2024-02-12T16:59:56.370Z,7.05
2024-02-12T17:02:23.131Z,7.53
2024-02-12T17:04:49.945Z,7.67
2024-02-12T17:07:19.527Z,7.23
2024-02-12T17:09:48.079Z,6.64
2024-02-12T17:12:14.779Z,6.99
2024-02-12T17:14:48.522Z,6.53
2024-02-12T17:17:17.359Z,7.19
2024-02-12T17:19:45.117Z,7.41
2024-02-12T17:22:12.649Z,7.62
2024-02-12T17:24:39.309Z,6.87
2024-02-12T17:27:05.991Z,7.28
2024-02-12T17:29:33.396Z,7.13
2024-02-12T17:32:02.315Z,6.95
2024-02-12T17:34:49.338Z,7.41
2024-02-12T17:37:16.598Z,7.36
2024-02-12T17:39:45.654Z,7.09
2024-02-12T17:42:17.044Z,6.71
2024-02-12T17:44:44.617Z,6.90
2024-02-12T17:47:11.283Z,6.54
2024-02-12T17:49:39.307Z,6.37
2024-02-12T17:52:07.974Z,5.36
2024-02-12T17:54:34.740Z,4.90
2024-02-12T17:57:01.618Z,6.26
2024-02-12T17:59:28.776Z,5.83
2024-02-12T18:01:55.392Z,6.36
2024-02-12T18:04:22.133Z,6.17
2024-02-12T18:06:49.258Z,6.19
2024-02-12T18:09:16.055Z,4.74
2024-02-12T18:11:42.747Z,6.14
2024-02-12T18:14:11.339Z,4.03
2024-02-12T18:16:38.103Z,6.47
2024-02-12T18:19:05.352Z,6.24
2024-02-12T18:21:32.078Z,4.79
2024-02-12T18:23:58.799Z,4.28
2024-02-12T18:26:26.389Z,6.21
2024-02-12T18:28:53.308Z,6.62
2024-02-12T18:31:20.671Z,5.96
2024-02-12T18:33:49.537Z,5.02
2024-02-12T18:36:16.454Z,5.10
2024-02-12T18:38:43.249Z,4.48
2024-02-12T18:41:13.535Z,6.08
2024-02-12T18:43:40.227Z,6.36
2024-02-12T18:46:07.504Z,5.09
2024-02-12T18:48:34.349Z,6.73
2024-02-12T18:51:01.526Z,6.35
2024-02-12T18:53:28.415Z,6.56
2024-02-12T18:55:55.544Z,4.95
2024-02-12T18:58:22.648Z,6.13
2024-02-12T19:00:49.361Z,5.42
2024-02-12T19:03:18.800Z,6.30
2024-02-12T19:05:47.177Z,6.01
2024-02-12T19:08:17.449Z,6.48
2024-02-12T19:10:44.417Z,6.54
2024-02-12T19:13:14.025Z,5.89
2024-02-12T19:15:43.533Z,5.56
2024-02-12T19:18:10.475Z,6.58
2024-02-12T19:20:37.322Z,5.30
2024-02-12T19:23:08.376Z,5.86
2024-02-12T19:25:38.408Z,5.87
2024-02-12T19:28:10.792Z,5.82
2024-02-12T19:30:38.168Z,5.99
2024-02-12T19:33:07.804Z,5.79
2024-02-12T19:35:34.670Z,5.87
2024-02-12T19:38:01.502Z,5.82
2024-02-12T19:40:33.483Z,6.19
2024-02-12T19:43:00.827Z,6.23
2024-02-12T19:45:27.666Z,5.28
2024-02-12T19:47:54.906Z,5.09
2024-02-12T19:50:25.133Z,5.35
2024-02-12T19:52:55.182Z,5.37
2024-02-12T19:55:21.926Z,4.72
2024-02-12T19:57:49.482Z,5.98
2024-02-12T20:00:18.221Z,5.70
2024-02-12T20:02:45.866Z,5.56
2024-02-12T20:05:12.895Z,5.35
2024-02-12T20:07:39.797Z,5.86
2024-02-12T20:10:11.501Z,4.70
2024-02-12T20:12:38.614Z,5.99
2024-02-12T20:15:08.859Z,5.77
2024-02-12T20:17:35.659Z,5.51
2024-02-12T20:20:06.537Z,3.34
2024-02-12T20:22:33.977Z,4.32
2024-02-12T20:25:00.677Z,5.19
2024-02-12T20:27:27.653Z,5.16
2024-02-12T20:29:54.383Z,5.84
2024-02-12T20:32:22.880Z,5.22
2024-02-12T20:34:49.783Z,5.73
2024-02-12T20:37:17.373Z,5.12
2024-02-12T20:39:48.046Z,5.97
2024-02-12T20:42:14.963Z,5.06
2024-02-12T20:44:41.777Z,5.55
2024-02-12T20:47:08.830Z,5.14
2024-02-12T20:49:37.160Z,5.93
2024-02-12T20:52:05.206Z,5.67
2024-02-12T20:54:33.818Z,5.81
2024-02-12T20:57:01.210Z,5.18
2024-02-12T20:59:27.915Z,5.79
2024-02-12T21:01:54.700Z,5.79
2024-02-12T21:04:21.528Z,4.88
2024-02-12T21:06:48.342Z,5.60
2024-02-12T21:09:15.057Z,5.82
2024-02-12T21:11:44.075Z,5.48
2024-02-12T21:14:14.313Z,4.97
2024-02-12T21:16:41.509Z,5.40
2024-02-12T21:19:08.312Z,5.67
2024-02-12T21:21:45.480Z,5.25
2024-02-12T21:24:13.314Z,5.77
2024-02-12T21:26:43.779Z,5.11
2024-02-12T21:29:11.794Z,5.50
2024-02-12T21:31:41.079Z,4.40
2024-02-12T21:34:14.736Z,4.57
2024-02-12T21:36:41.742Z,4.51
2024-02-12T21:39:13.178Z,3.56
2024-02-12T21:41:52.145Z,4.62
2024-02-12T21:44:20.284Z,5.36
2024-02-12T21:46:47.367Z,5.38
2024-02-12T21:49:14.399Z,5.20
2024-02-12T21:51:41.381Z,5.29
2024-02-12T21:54:08.227Z,4.88
2024-02-12T21:56:35.227Z,4.30
2024-02-12T21:59:02.613Z,5.06
2024-02-12T22:01:30.764Z,4.97
2024-02-12T22:03:58.033Z,4.65
2024-02-12T22:06:25.384Z,3.65
2024-02-12T22:08:52.253Z,4.72
2024-02-12T22:11:19.069Z,5.01
2024-02-12T22:13:48.552Z,3.01
2024-02-12T22:16:15.320Z,1.75
2024-02-12T22:18:42.138Z,4.65
2024-02-12T22:21:09.696Z,4.53
2024-02-12T22:23:37.992Z,4.35
2024-02-12T22:26:06.016Z,4.73
2024-02-12T22:28:33.559Z,4.50
2024-02-12T22:31:00.424Z,4.75
2024-02-12T22:33:27.453Z,4.25
2024-02-12T22:35:55.098Z,4.39
2024-02-12T22:38:22.724Z,4.96
2024-02-12T22:40:49.593Z,3.65
2024-02-12T22:43:16.298Z,4.78
2024-02-12T22:45:43.624Z,4.43
2024-02-12T22:48:10.886Z,4.29
2024-02-12T22:50:41.055Z,4.61
2024-02-12T22:53:11.827Z,3.58
2024-02-12T22:55:39.618Z,5.22
2024-02-12T22:58:09.653Z,4.87
2024-02-12T23:00:42.409Z,4.41
2024-02-12T23:03:09.245Z,3.68
2024-02-12T23:05:36.021Z,4.53
2024-02-12T23:08:02.810Z,4.68
2024-02-12T23:10:30.288Z,4.73
2024-02-12T23:12:57.006Z,4.94
2024-02-12T23:15:23.811Z,4.59
2024-02-12T23:17:51.875Z,4.07
2024-02-12T23:20:19.462Z,4.65
2024-02-12T23:22:49.147Z,3.87
2024-02-12T23:25:15.761Z,5.22
2024-02-12T23:27:42.419Z,5.00
2024-02-12T23:30:10.030Z,4.82
2024-02-12T23:32:36.986Z,2.82
2024-02-12T23:35:06.509Z,4.60
2024-02-12T23:37:38.906Z,4.94
2024-02-12T23:40:10.841Z,4.90
2024-02-12T23:42:41.825Z,4.78
2024-02-12T23:45:11.919Z,4.50
2024-02-12T23:47:39.415Z,4.93
2024-02-12T23:50:09.600Z,4.06
2024-02-12T23:52:36.508Z,4.64
2024-02-12T23:55:03.274Z,4.71
2024-02-12T23:57:30.020Z,4.00
2024-02-12T23:59:56.830Z,4.60
